Estación de San Nicolás

Ultimos registro cada 15 minutos 73
Estación Fecha / Hora Temperatura Humedad Lluvia Velocidad Dirección Radiación Presion
73 San Nicolás 08-05-2026 18:15 10,8 90 0 0 260 0 1019,4
72 San Nicolás 08-05-2026 18:00 11,4 91 0 0 260 0 1019,3
71 San Nicolás 08-05-2026 17:45 11,6 91 0 0 261 7 1019,4
70 San Nicolás 08-05-2026 17:30 11,8 91 0 0,9 260 18 1019,4
69 San Nicolás 08-05-2026 17:15 11,9 91 0 0 260 35 1019,6
68 San Nicolás 08-05-2026 17:00 11,8 91 0 0,4 260 56 1019,5
67 San Nicolás 08-05-2026 16:45 11,7 91 0 0 259 70 1019,5
66 San Nicolás 08-05-2026 16:30 11,7 92 0 0 259 39 1019,4
65 San Nicolás 08-05-2026 16:15 11,7 92 0 0 259 30 1019,4
64 San Nicolás 08-05-2026 16:00 11,6 92 0 0,9 259 37 1019,4
63 San Nicolás 08-05-2026 15:45 11,7 92 0 0 355 77 1019,2
62 San Nicolás 08-05-2026 15:30 11,6 92 0 0 355 98 1019,1
61 San Nicolás 08-05-2026 15:15 11,5 93 0 0 359 81 1019,3
60 San Nicolás 08-05-2026 15:00 11,4 93 0 0 359 113 1019,3
59 San Nicolás 08-05-2026 14:45 11,2 94 0 0 6 65 1019,2
58 San Nicolás 08-05-2026 14:30 11,2 94 0 1,8 49 127 1019
57 San Nicolás 08-05-2026 14:15 11,2 94 0 0,4 49 93 1018,9
56 San Nicolás 08-05-2026 14:00 11 95 0 1,3 29 179 1018,9
55 San Nicolás 08-05-2026 13:45 10,9 94 0 0,9 40 130 1019
54 San Nicolás 08-05-2026 13:30 10,9 95 0 2,2 44 130 1019,2
53 San Nicolás 08-05-2026 13:15 10,7 95 0 1,8 40 109 1019,6
52 San Nicolás 08-05-2026 13:00 10,8 95 0 1,8 57 163 1019,8
51 San Nicolás 08-05-2026 12:45 10,5 95 0 1,3 65 195 1019,7
50 San Nicolás 08-05-2026 12:30 10,4 95 0 2,2 84 120 1019,9
49 San Nicolás 08-05-2026 12:15 10,4 94 0 1,8 66 141 1019,8
48 San Nicolás 08-05-2026 12:00 10,3 94 0 1,8 76 88 1019,9
47 San Nicolás 08-05-2026 11:45 10,2 94 0 1,8 86 95 1019,8
46 San Nicolás 08-05-2026 11:15 10,1 95 0 2,7 82 158 1019,7
45 San Nicolás 08-05-2026 11:00 9,7 95 0 2,2 69 151 1019,7
44 San Nicolás 08-05-2026 10:45 9,6 94 0 2,2 67 139 1019,8
43 San Nicolás 08-05-2026 10:30 9,5 94 0 1,8 51 120 1019,9
42 San Nicolás 08-05-2026 10:15 9,2 94 0 1,3 54 127 1020
41 San Nicolás 08-05-2026 10:00 8,9 94 0,3 1,8 56 181 1019,9
40 San Nicolás 08-05-2026 09:45 8,7 94 0,3 0,9 1 58 1020,1
39 San Nicolás 08-05-2026 09:30 8,7 94 0,3 3,1 63 70 1020
38 San Nicolás 08-05-2026 09:15 8,5 94 0 3,1 65 69 1020,3
37 San Nicolás 08-05-2026 09:00 8,6 94 0 0,9 42 30 1020,7
36 San Nicolás 08-05-2026 08:45 8,4 93 0 0,9 38 25 1020,6
35 San Nicolás 08-05-2026 08:30 8,5 93 1 2,2 32 25 1020,5
34 San Nicolás 08-05-2026 08:15 8,8 92 0,8 1,3 37 11 1020,3
33 San Nicolás 08-05-2026 08:00 8,9 91 0,3 1,3 36 11 1019,9
32 San Nicolás 08-05-2026 07:45 9 91 0 1,8 36 0 1019,9
31 San Nicolás 08-05-2026 07:30 9,1 90 0 3,1 65 0 1019,5
30 San Nicolás 08-05-2026 07:15 9 90 0 1,8 51 0 1019,6
29 San Nicolás 08-05-2026 07:00 9 90 0 2,7 60 0 1019,6
28 San Nicolás 08-05-2026 06:45 8,9 91 0 1,3 58 0 1019,8
27 San Nicolás 08-05-2026 06:30 8,8 92 0 2,7 69 0 1020
26 San Nicolás 08-05-2026 06:15 8,7 92 0 2,2 58 0 1020,1
25 San Nicolás 08-05-2026 06:00 8,7 92 0 0,9 42 0 1020,6
24 San Nicolás 08-05-2026 05:45 8,8 92 0 0,4 335 0 1020,5
23 San Nicolás 08-05-2026 05:30 8,9 92 0,3 0 334 0 1020,8
22 San Nicolás 08-05-2026 05:15 8,9 92 0 0 334 0 1020,8
21 San Nicolás 08-05-2026 05:00 8,8 92 0 0,9 334 0 1020,9
20 San Nicolás 08-05-2026 04:45 8,8 92 0 0,4 265 0 1020,6
19 San Nicolás 08-05-2026 04:30 8,8 92 0 0,4 252 0 1020,9
18 San Nicolás 08-05-2026 04:15 8,7 92 0 0 249 0 1020,9
17 San Nicolás 08-05-2026 04:00 8,8 92 0 0,9 249 0 1020,9
16 San Nicolás 08-05-2026 03:45 8,8 92 0 0 249 0 1021,4
15 San Nicolás 08-05-2026 03:30 8,8 92 0 0 249 0 1021,3
14 San Nicolás 08-05-2026 03:15 8,8 92 0 0 249 0 1021,5
13 San Nicolás 08-05-2026 03:00 8,8 92 0 0 249 0 1021,7
12 San Nicolás 08-05-2026 02:45 8,8 92 0 0 249 0 1021,9
11 San Nicolás 08-05-2026 02:30 8,7 92 0 0 249 0 1022
10 San Nicolás 08-05-2026 02:15 8,7 92 0 0,9 241 0 1022
9 San Nicolás 08-05-2026 02:00 8,7 93 0 0 241 0 1022,8
8 San Nicolás 08-05-2026 01:45 8,6 93 0 0 241 0 1022,6
7 San Nicolás 08-05-2026 01:30 8,6 93 0 0 241 0 1022,9
6 San Nicolás 08-05-2026 01:15 8,5 92 0 0 241 0 1023,1
5 San Nicolás 08-05-2026 01:00 8,4 92 0 0 241 0 1022,9
4 San Nicolás 08-05-2026 00:45 8,3 92 0 0 241 0 1023,2
3 San Nicolás 08-05-2026 00:30 8,4 92 0 0 241 0 1023,4
2 San Nicolás 08-05-2026 00:15 8,4 90 0 0 241 0 1023,4
1 San Nicolás 08-05-2026 00:00 8,4 90 0 0 241 0 1023,6